createdAt,value
2018-06-07T00:00:47.962Z,100242.78
2018-06-07T00:03:17.544Z,100245.98
2018-06-07T00:05:47.390Z,100245.90
2018-06-07T00:08:16.926Z,100244.86
2018-06-07T00:10:46.719Z,100242.70
2018-06-07T00:13:16.739Z,100245.59
2018-06-07T00:15:46.690Z,100239.41
2018-06-07T00:18:16.370Z,100242.53
2018-06-07T00:20:46.466Z,100243.13
2018-06-07T00:23:16.341Z,100240.67
2018-06-07T00:25:46.045Z,100237.05
2018-06-07T00:28:15.983Z,100231.47
2018-06-07T00:30:45.647Z,100230.35
2018-06-07T00:33:15.255Z,100251.28
2018-06-07T00:35:48.416Z,100243.75
2018-06-07T00:38:18.189Z,100241.81
2018-06-07T00:40:47.968Z,100234.59
2018-06-07T00:43:18.198Z,100226.47
2018-06-07T00:45:47.918Z,100233.16
2018-06-07T00:48:18.579Z,100235.02
2018-06-07T00:50:48.498Z,100238.22
2018-06-07T00:53:18.239Z,100238.74
2018-06-07T00:55:48.383Z,100237.59
2018-06-07T00:58:18.747Z,100243.28
2018-06-07T01:00:48.466Z,100237.92
2018-06-07T01:03:18.994Z,100236.98
2018-06-07T01:05:48.767Z,100237.94
2018-06-07T01:08:18.483Z,100242.88
2018-06-07T01:10:48.270Z,100241.45
2018-06-07T01:13:18.070Z,100244.77
2018-06-07T01:15:47.755Z,100239.81
2018-06-07T01:18:17.542Z,100240.98
2018-06-07T01:20:47.330Z,100242.93
2018-06-07T01:23:17.234Z,100237.27
2018-06-07T01:25:47.142Z,100240.37
2018-06-07T01:28:17.017Z,100240.89
2018-06-07T01:30:51.931Z,100238.61
2018-06-07T01:33:36.828Z,100228.30
2018-06-07T01:36:06.260Z,100225.74
2018-06-07T01:38:47.286Z,100221.61
2018-06-07T01:41:17.030Z,100222.86
2018-06-07T01:43:46.821Z,100228.64
2018-06-07T01:46:16.578Z,100220.70
2018-06-07T01:48:46.277Z,100221.43
2018-06-07T01:51:15.981Z,100228.03
2018-06-07T01:53:45.934Z,100226.48
2018-06-07T01:56:15.694Z,100221.95
2018-06-07T01:58:45.537Z,100217.11
2018-06-07T02:01:15.294Z,100214.34
2018-06-07T02:03:45.005Z,100219.48
2018-06-07T02:06:15.097Z,100211.45
2018-06-07T02:08:44.943Z,100215.98
2018-06-07T02:11:15.568Z,100211.75
2018-06-07T02:13:45.376Z,100218.05
2018-06-07T02:16:15.284Z,100211.14
2018-06-07T02:18:45.084Z,100209.59
2018-06-07T02:21:14.619Z,100212.17
2018-06-07T02:23:44.426Z,100208.98
2018-06-07T02:26:14.178Z,100211.78
2018-06-07T02:28:44.060Z,100215.45
2018-06-07T02:31:13.794Z,100209.50
2018-06-07T02:33:43.475Z,100215.06
2018-06-07T02:36:13.223Z,100210.02
2018-06-07T02:38:43.443Z,100218.77
2018-06-07T02:41:13.347Z,100210.74
2018-06-07T02:43:43.039Z,100214.14
2018-06-07T02:46:12.725Z,100209.39
2018-06-07T02:48:42.907Z,100217.63
2018-06-07T02:51:12.727Z,100212.59
2018-06-07T02:53:42.496Z,100210.73
2018-06-07T02:56:12.291Z,100211.77
2018-06-07T02:58:42.201Z,100217.94
2018-06-07T03:01:12.061Z,100216.09
2018-06-07T03:03:41.915Z,100210.83
2018-06-07T03:06:11.669Z,100210.95
2018-06-07T03:08:41.368Z,100211.86
2018-06-07T03:11:11.080Z,100217.64
2018-06-07T03:13:40.817Z,100213.30
2018-06-07T03:16:10.616Z,100217.22
2018-06-07T03:18:40.425Z,100223.80
2018-06-07T03:21:10.417Z,100222.98
2018-06-07T03:23:40.298Z,100225.88
2018-06-07T03:26:10.114Z,100223.50
2018-06-07T03:28:39.883Z,100226.87
2018-06-07T03:31:09.619Z,100228.09
2018-06-07T03:33:39.442Z,100222.22
2018-06-07T03:36:09.267Z,100231.40
2018-06-07T03:38:39.116Z,100224.70
2018-06-07T03:41:08.970Z,100229.14
2018-06-07T03:43:38.674Z,100233.12
2018-06-07T03:46:08.391Z,100240.09
2018-06-07T03:48:38.082Z,100240.37
2018-06-07T03:51:07.891Z,100242.68
2018-06-07T03:53:37.667Z,100241.84
2018-06-07T03:56:07.384Z,100246.44
2018-06-07T03:58:37.713Z,100243.84
2018-06-07T04:01:07.396Z,100242.66
2018-06-07T04:03:37.475Z,100238.75
2018-06-07T04:06:07.370Z,100239.98
2018-06-07T04:08:37.283Z,100242.26
2018-06-07T04:11:07.464Z,100242.61
2018-06-07T04:13:37.510Z,100246.38
2018-06-07T04:16:07.423Z,100250.76
2018-06-07T04:18:37.225Z,100261.02
2018-06-07T04:21:06.916Z,100260.45
2018-06-07T04:23:36.616Z,100256.51
2018-06-07T04:26:06.412Z,100252.03
2018-06-07T04:28:37.015Z,100252.02
2018-06-07T04:31:06.707Z,100262.97
2018-06-07T04:33:36.515Z,100263.66
2018-06-07T04:36:06.223Z,100275.19
2018-06-07T04:38:36.815Z,100275.20
2018-06-07T04:41:06.546Z,100280.89
2018-06-07T04:43:36.238Z,100284.50
2018-06-07T04:46:06.106Z,100284.63
2018-06-07T04:48:35.968Z,100293.39
2018-06-07T04:51:05.802Z,100297.69
2018-06-07T04:53:35.667Z,100295.83
2018-06-07T04:56:05.638Z,100302.00
2018-06-07T04:58:35.463Z,100293.66
2018-06-07T05:01:05.140Z,100297.64
2018-06-07T05:03:34.959Z,100303.68
2018-06-07T05:06:04.789Z,100306.56
2018-06-07T05:08:34.486Z,100309.80
2018-06-07T05:11:04.398Z,100303.87
2018-06-07T05:13:34.101Z,100299.45
2018-06-07T05:16:03.994Z,100307.66
2018-06-07T05:18:33.688Z,100302.97
2018-06-07T05:21:03.609Z,100306.81
2018-06-07T05:23:34.056Z,100308.19
2018-06-07T05:26:03.868Z,100314.87
2018-06-07T05:28:33.694Z,100314.35
2018-06-07T05:31:03.547Z,100316.98
2018-06-07T05:33:33.230Z,100329.77
2018-06-07T05:36:03.054Z,100322.33
2018-06-07T05:38:32.614Z,100329.46
2018-06-07T05:41:02.331Z,100318.28
2018-06-07T05:43:32.330Z,100326.28
2018-06-07T05:46:02.037Z,100324.89
2018-06-07T05:48:31.762Z,100333.31
2018-06-07T05:51:01.513Z,100332.70
2018-06-07T05:53:31.337Z,100325.48
2018-06-07T05:56:01.315Z,100325.69
2018-06-07T05:58:31.206Z,100335.45
2018-06-07T06:01:01.034Z,100334.48
2018-06-07T06:03:31.366Z,100331.23
2018-06-07T06:06:01.759Z,100333.45
2018-06-07T06:08:32.144Z,100331.11
2018-06-07T06:11:02.468Z,100340.50
2018-06-07T06:13:32.934Z,100342.29
2018-06-07T06:16:03.252Z,100336.03
2018-06-07T06:18:33.645Z,100340.00
2018-06-07T06:21:04.078Z,100340.04
2018-06-07T06:23:34.405Z,100330.52
2018-06-07T06:26:04.700Z,100331.05
2018-06-07T06:28:35.137Z,100326.63
2018-06-07T06:31:05.636Z,100332.98
2018-06-07T06:33:36.087Z,100332.75
2018-06-07T06:36:07.328Z,100326.62
2018-06-07T06:38:39.445Z,100325.17
2018-06-07T06:41:09.806Z,100320.59
2018-06-07T06:43:40.187Z,100322.50
2018-06-07T06:46:10.889Z,100324.03
2018-06-07T06:48:41.273Z,100327.44
2018-06-07T06:51:11.531Z,100314.95
2018-06-07T06:53:41.882Z,100314.53
2018-06-07T06:56:12.268Z,100319.48
2018-06-07T06:58:42.611Z,100326.56
2018-06-07T07:01:13.027Z,100317.48
2018-06-07T07:03:43.841Z,100320.36
2018-06-07T07:06:15.256Z,100323.36
2018-06-07T07:08:45.554Z,100324.80
2018-06-07T07:11:16.527Z,100323.20
2018-06-07T07:13:47.877Z,100326.48
2018-06-07T07:16:18.198Z,100331.66
2018-06-07T07:18:48.466Z,100329.98
2018-06-07T07:21:18.919Z,100338.09
2018-06-07T07:23:49.246Z,100330.05
2018-06-07T07:26:19.602Z,100330.81
2018-06-07T07:28:49.964Z,100331.31
2018-06-07T07:31:20.350Z,100330.75
2018-06-07T07:33:50.861Z,100328.16
2018-06-07T07:36:21.230Z,100336.91
2018-06-07T07:38:51.507Z,100325.64
2018-06-07T07:41:21.901Z,100328.35
2018-06-07T07:43:52.988Z,100327.28
2018-06-07T07:46:23.266Z,100326.95
2018-06-07T07:48:53.593Z,100330.83
2018-06-07T07:51:25.877Z,100335.73
2018-06-07T07:53:57.471Z,100333.72
2018-06-07T07:56:27.895Z,100319.41
2018-06-07T07:58:58.350Z,100319.74
2018-06-07T08:01:28.628Z,100318.86
2018-06-07T08:03:58.925Z,100317.59
2018-06-07T08:06:29.202Z,100318.77
2018-06-07T08:08:59.287Z,100314.59
2018-06-07T08:11:29.781Z,100305.23
2018-06-07T08:14:00.233Z,100305.59
2018-06-07T08:16:30.592Z,100308.56
2018-06-07T08:19:01.048Z,100304.58
2018-06-07T08:21:31.414Z,100297.22
2018-06-07T08:24:01.606Z,100303.24
2018-06-07T08:26:31.902Z,100297.09
2018-06-07T08:29:02.246Z,100293.59
2018-06-07T08:31:33.569Z,100286.21
2018-06-07T08:34:03.987Z,100295.00
2018-06-07T08:36:34.331Z,100292.78
2018-06-07T08:39:06.082Z,100293.08
2018-06-07T08:41:36.422Z,100295.75
2018-06-07T08:44:06.980Z,100289.30
2018-06-07T08:46:37.351Z,100294.93
2018-06-07T08:49:07.679Z,100293.26
2018-06-07T08:51:37.979Z,100297.53
2018-06-07T08:54:11.187Z,100297.59
2018-06-07T08:56:44.685Z,100292.40
2018-06-07T08:59:15.161Z,100290.77
2018-06-07T09:01:47.706Z,100290.50
2018-06-07T09:04:20.449Z,100295.10
2018-06-07T09:06:50.822Z,100287.97
2018-06-07T09:09:21.206Z,100291.84
2018-06-07T09:11:52.034Z,100290.77
2018-06-07T09:14:22.287Z,100290.33
2018-06-07T09:16:52.582Z,100291.48
2018-06-07T09:19:22.902Z,100296.95
2018-06-07T09:21:53.374Z,100300.62
2018-06-07T09:24:23.711Z,100283.86
2018-06-07T09:26:54.002Z,100280.48
2018-06-07T09:29:24.797Z,100280.38
2018-06-07T09:31:55.301Z,100274.59
2018-06-07T09:34:25.747Z,100280.09
2018-06-07T09:36:56.354Z,100273.08
2018-06-07T09:39:26.729Z,100267.81
2018-06-07T09:41:57.086Z,100271.39
2018-06-07T09:44:27.979Z,100270.55
2018-06-07T09:46:58.369Z,100263.59
2018-06-07T09:49:29.751Z,100269.27
2018-06-07T09:52:00.134Z,100264.72
2018-06-07T09:54:30.528Z,100252.53
2018-06-07T09:57:00.794Z,100252.89
2018-06-07T09:59:31.497Z,100248.72
2018-06-07T10:02:01.978Z,100254.74
2018-06-07T10:04:32.966Z,100252.75
2018-06-07T10:07:03.265Z,100250.57
2018-06-07T10:09:33.624Z,100250.99
2018-06-07T10:12:03.322Z,100241.83
2018-06-07T10:14:33.174Z,100240.46
2018-06-07T10:17:03.035Z,100242.38
2018-06-07T10:19:32.885Z,100232.29
2018-06-07T10:22:02.734Z,100246.78
2018-06-07T10:24:32.462Z,100240.11
2018-06-07T10:27:02.223Z,100236.61
2018-06-07T10:29:32.002Z,100233.76
2018-06-07T10:32:01.758Z,100233.59
2018-06-07T10:34:31.534Z,100238.66
2018-06-07T10:37:01.372Z,100235.95
2018-06-07T10:39:31.112Z,100234.12
2018-06-07T10:42:01.367Z,100234.53
2018-06-07T10:44:31.908Z,100219.83
2018-06-07T10:47:01.652Z,100224.92
2018-06-07T10:49:31.376Z,100218.72
2018-06-07T10:52:01.324Z,100219.52
2018-06-07T10:54:31.130Z,100220.05
2018-06-07T10:57:00.932Z,100215.69
2018-06-07T10:59:30.720Z,100214.30
2018-06-07T11:02:00.523Z,100208.03
2018-06-07T11:04:30.354Z,100217.59
2018-06-07T11:07:01.067Z,100225.09
2018-06-07T11:09:30.789Z,100218.08
2018-06-07T11:12:00.516Z,100216.59
2018-06-07T11:14:30.247Z,100208.86
2018-06-07T11:17:00.023Z,100201.16
2018-06-07T11:19:29.905Z,100203.89
2018-06-07T11:21:59.759Z,100205.91
2018-06-07T11:24:29.639Z,100216.30
2018-06-07T11:26:59.595Z,100202.13
2018-06-07T11:29:29.361Z,100198.71
2018-06-07T11:31:59.238Z,100199.14
2018-06-07T11:34:29.103Z,100199.08
2018-06-07T11:36:58.836Z,100208.34
2018-06-07T11:39:28.580Z,100202.78
2018-06-07T11:41:58.355Z,100191.84
2018-06-07T11:44:28.131Z,100191.30
2018-06-07T11:46:58.026Z,100194.02
2018-06-07T11:49:27.735Z,100194.31
2018-06-07T11:51:57.492Z,100186.63
2018-06-07T11:54:27.315Z,100195.30
2018-06-07T11:56:57.243Z,100184.25
2018-06-07T11:59:27.001Z,100183.75
2018-06-07T12:01:56.756Z,100173.61
2018-06-07T12:04:26.454Z,100170.17
2018-06-07T12:06:57.033Z,100169.00
2018-06-07T12:09:29.202Z,100160.70
2018-06-07T12:11:59.062Z,100165.95
2018-06-07T12:14:29.063Z,100165.09
2018-06-07T12:16:58.948Z,100165.84
2018-06-07T12:19:28.766Z,100162.41
2018-06-07T12:21:58.509Z,100155.31
2018-06-07T12:24:28.851Z,100157.49
2018-06-07T12:26:58.610Z,100143.61
2018-06-07T12:29:28.989Z,100145.74
2018-06-07T12:31:59.743Z,100137.92
2018-06-07T12:34:30.187Z,100147.33
2018-06-07T12:37:00.666Z,100138.78
2018-06-07T12:39:30.976Z,100139.61
2018-06-07T12:42:01.304Z,100136.08
2018-06-07T12:44:31.603Z,100133.58
2018-06-07T12:47:02.075Z,100120.18
2018-06-07T12:49:32.596Z,100124.11
2018-06-07T12:52:02.947Z,100128.27
2018-06-07T12:54:33.387Z,100119.52
2018-06-07T12:57:03.658Z,100125.42
2018-06-07T12:59:33.968Z,100124.30
2018-06-07T13:02:04.456Z,100110.06
2018-06-07T13:04:34.744Z,100112.85
2018-06-07T13:07:05.059Z,100117.20
2018-06-07T13:09:35.551Z,100118.95
2018-06-07T13:12:06.453Z,100115.63
2018-06-07T13:14:36.882Z,100103.70
2018-06-07T13:17:07.366Z,100104.98
2018-06-07T13:19:37.778Z,100098.64
2018-06-07T13:22:08.120Z,100094.41
2018-06-07T13:24:38.482Z,100095.34
2018-06-07T13:27:08.866Z,100100.27
2018-06-07T13:29:38.799Z,100087.58
2018-06-07T13:32:08.905Z,100091.94
2018-06-07T13:34:38.877Z,100080.85
2018-06-07T13:37:08.632Z,100079.34
2018-06-07T13:39:38.635Z,100081.01
2018-06-07T13:42:08.494Z,100091.81
2018-06-07T13:44:38.294Z,100075.72
2018-06-07T13:47:08.948Z,100080.05
2018-06-07T13:49:38.708Z,100072.17
2018-06-07T13:52:08.419Z,100074.64
2018-06-07T13:54:38.956Z,100070.81
2018-06-07T13:57:08.643Z,100069.91
2018-06-07T13:59:38.461Z,100062.35
2018-06-07T14:02:08.745Z,100059.48
2018-06-07T14:04:39.063Z,100056.63
2018-06-07T14:07:08.747Z,100057.96
2018-06-07T14:09:39.122Z,100059.02
2018-06-07T14:12:09.482Z,100053.97
2018-06-07T14:14:39.948Z,100056.78
2018-06-07T14:17:10.268Z,100053.33
2018-06-07T14:19:40.641Z,100049.47
2018-06-07T14:22:11.606Z,100051.42
2018-06-07T14:24:41.883Z,100045.45
2018-06-07T14:27:12.190Z,100041.44
2018-06-07T14:29:42.603Z,100040.90
2018-06-07T14:32:13.152Z,100042.42
2018-06-07T14:34:43.431Z,100027.84
2018-06-07T14:37:13.878Z,100039.67
2018-06-07T14:39:44.195Z,100028.11
2018-06-07T14:42:14.485Z,100029.72
2018-06-07T14:44:44.780Z,100022.53
2018-06-07T14:47:15.125Z,100029.78
2018-06-07T14:49:45.535Z,100019.79
2018-06-07T14:52:15.284Z,100020.52
2018-06-07T14:54:45.069Z,100008.75
2018-06-07T14:57:14.779Z,100006.70
2018-06-07T14:59:44.358Z,100008.17
2018-06-07T15:02:14.123Z,99998.73
2018-06-07T15:04:46.739Z,100003.27
2018-06-07T15:07:16.710Z,99997.05
2018-06-07T15:09:46.517Z,99999.92
2018-06-07T15:12:16.226Z,99992.86
2018-06-07T15:14:46.093Z,99992.51
2018-06-07T15:17:15.898Z,99995.37
2018-06-07T15:19:46.499Z,99994.17
2018-06-07T15:22:16.499Z,99999.00
2018-06-07T15:24:46.456Z,99986.35
2018-06-07T15:27:16.434Z,99991.98
2018-06-07T15:29:46.819Z,99988.43
2018-06-07T15:32:16.784Z,99993.53
2018-06-07T15:34:46.596Z,99986.11
2018-06-07T15:37:16.352Z,99982.91
2018-06-07T15:39:46.323Z,99985.78
2018-06-07T15:42:16.251Z,99976.23
2018-06-07T15:44:45.994Z,99984.97
2018-06-07T15:47:15.678Z,99976.94
2018-06-07T15:49:46.473Z,99971.35
2018-06-07T15:52:16.296Z,99972.09
2018-06-07T15:54:46.041Z,99967.80
2018-06-07T15:57:15.916Z,99971.45
2018-06-07T15:59:45.707Z,99966.64
2018-06-07T16:02:15.436Z,99962.81
2018-06-07T16:04:45.516Z,99962.07
2018-06-07T16:07:15.293Z,99963.79
2018-06-07T16:09:44.992Z,99958.31
2018-06-07T16:12:14.704Z,99960.80
2018-06-07T16:14:44.438Z,99961.36
2018-06-07T16:17:14.154Z,99967.05
2018-06-07T16:19:43.918Z,99966.03
2018-06-07T16:22:13.644Z,99964.91
2018-06-07T16:24:43.447Z,99970.60
2018-06-07T16:27:13.198Z,99971.66
2018-06-07T16:29:42.943Z,99971.66
2018-06-07T16:32:12.671Z,99961.58
2018-06-07T16:34:42.669Z,99965.06
2018-06-07T16:37:12.491Z,99955.08
2018-06-07T16:39:42.281Z,99956.94
2018-06-07T16:42:12.001Z,99955.95
2018-06-07T16:44:42.095Z,99948.23
2018-06-07T16:47:12.421Z,99948.48
2018-06-07T16:49:42.139Z,99940.39
2018-06-07T16:52:11.992Z,99948.11
2018-06-07T16:54:41.695Z,99946.99
2018-06-07T16:57:11.422Z,99937.19
2018-06-07T16:59:41.136Z,99945.72
2018-06-07T17:02:10.832Z,99936.86
2018-06-07T17:04:40.575Z,99933.72
2018-06-07T17:07:10.290Z,99929.38
2018-06-07T17:09:40.039Z,99929.12
2018-06-07T17:12:10.138Z,99934.44
2018-06-07T17:14:39.887Z,99928.53
2018-06-07T17:17:10.172Z,99934.56
2018-06-07T17:19:39.881Z,99934.91
2018-06-07T17:22:09.759Z,99938.20
2018-06-07T17:24:39.472Z,99932.23
2018-06-07T17:27:09.264Z,99930.42
2018-06-07T17:29:39.453Z,99929.31
2018-06-07T17:32:09.226Z,99926.91
2018-06-07T17:34:39.139Z,99924.55
2018-06-07T17:37:09.014Z,99927.09
2018-06-07T17:39:38.719Z,99930.39
2018-06-07T17:42:08.929Z,99921.44
2018-06-07T17:44:38.624Z,99925.93
2018-06-07T17:47:08.303Z,99929.56
2018-06-07T17:49:38.042Z,99931.80
2018-06-07T17:52:07.951Z,99921.81
2018-06-07T17:54:37.774Z,99933.05
2018-06-07T17:57:07.494Z,99923.79
2018-06-07T17:59:37.300Z,99930.18
2018-06-07T18:02:06.982Z,99928.09
2018-06-07T18:04:36.702Z,99924.87
2018-06-07T18:07:06.500Z,99932.69
2018-06-07T18:09:36.238Z,99928.91
2018-06-07T18:12:05.928Z,99929.83
2018-06-07T18:14:35.695Z,99929.60
2018-06-07T18:17:05.591Z,99930.56
2018-06-07T18:19:35.506Z,99928.76
2018-06-07T18:22:05.479Z,99926.15
2018-06-07T18:24:35.180Z,99935.58
2018-06-07T18:27:05.376Z,99930.84
2018-06-07T18:29:35.268Z,99928.45
2018-06-07T18:32:05.040Z,99924.22
2018-06-07T18:34:34.872Z,99924.33
2018-06-07T18:37:04.980Z,99923.08
2018-06-07T18:39:34.701Z,99927.20
2018-06-07T18:42:04.402Z,99927.08
2018-06-07T18:44:34.154Z,99927.13
2018-06-07T18:47:03.854Z,99930.52
2018-06-07T18:49:33.750Z,99926.66
2018-06-07T18:52:04.077Z,99930.70
2018-06-07T18:54:34.573Z,99934.97
2018-06-07T18:57:04.329Z,99929.38
2018-06-07T18:59:34.187Z,99938.80
2018-06-07T19:02:03.942Z,99946.04
2018-06-07T19:04:33.698Z,99951.58
2018-06-07T19:07:03.492Z,99948.39
2018-06-07T19:09:38.530Z,99952.53
2018-06-07T19:12:08.418Z,99949.91
2018-06-07T19:14:44.327Z,99955.36
2018-06-07T19:17:13.762Z,99959.20
2018-06-07T19:19:48.994Z,99958.98
2018-06-07T19:22:18.874Z,99960.91
2018-06-07T19:24:53.807Z,99959.62
2018-06-07T19:27:26.116Z,99958.61
2018-06-07T19:29:55.972Z,99970.06
2018-06-07T19:32:30.871Z,99967.09
2018-06-07T19:35:06.683Z,99967.68
2018-06-07T19:37:36.994Z,99966.04
2018-06-07T19:40:12.055Z,99967.19
2018-06-07T19:42:41.645Z,99965.60
2018-06-07T19:45:11.442Z,99967.24
2018-06-07T19:47:41.175Z,99963.19
2018-06-07T19:50:11.798Z,99968.11
2018-06-07T19:52:41.951Z,99961.87
2018-06-07T19:55:11.751Z,99967.58
2018-06-07T19:57:41.461Z,99967.82
2018-06-07T20:00:11.188Z,99965.37
2018-06-07T20:02:41.124Z,99969.73
2018-06-07T20:05:11.174Z,99971.88
2018-06-07T20:07:40.918Z,99969.98
2018-06-07T20:10:10.632Z,99961.31
2018-06-07T20:12:40.075Z,99968.61
2018-06-07T20:15:09.828Z,99965.09
2018-06-07T20:17:39.331Z,99971.34
2018-06-07T20:20:09.106Z,99971.33
2018-06-07T20:22:38.554Z,99961.53
2018-06-07T20:25:08.105Z,99966.72
2018-06-07T20:27:38.046Z,99967.26
2018-06-07T20:30:07.878Z,99967.26
2018-06-07T20:32:37.597Z,99971.05
2018-06-07T20:35:08.318Z,99967.26
2018-06-07T20:37:38.107Z,99963.45
2018-06-07T20:40:07.820Z,99963.69
2018-06-07T20:42:38.079Z,99958.27
2018-06-07T20:45:07.936Z,99957.97
2018-06-07T20:47:37.746Z,99966.93
2018-06-07T20:50:07.579Z,99965.52
2018-06-07T20:52:37.148Z,99963.02
2018-06-07T20:55:06.893Z,99966.55
2018-06-07T20:57:36.607Z,99965.97
2018-06-07T21:00:06.643Z,99965.70
2018-06-07T21:02:36.112Z,99971.08
2018-06-07T21:05:06.627Z,99970.23
2018-06-07T21:07:36.136Z,99964.77
2018-06-07T21:10:06.187Z,99972.85
2018-06-07T21:12:35.973Z,99973.94
2018-06-07T21:15:05.506Z,99969.00
2018-06-07T21:17:34.958Z,99967.81
2018-06-07T21:20:04.793Z,99967.73
2018-06-07T21:22:34.543Z,99969.63
2018-06-07T21:25:04.052Z,99965.00
2018-06-07T21:27:33.648Z,99963.65
2018-06-07T21:30:03.844Z,99958.44
2018-06-07T21:32:33.591Z,99957.31
2018-06-07T21:35:04.873Z,99959.14
2018-06-07T21:37:34.431Z,99961.23
2018-06-07T21:40:04.261Z,99962.31
2018-06-07T21:42:34.174Z,99965.27
2018-06-07T21:45:03.928Z,99964.11
2018-06-07T21:47:33.450Z,99961.63
2018-06-07T21:50:03.207Z,99966.74
2018-06-07T21:52:32.703Z,99958.62
2018-06-07T21:55:02.347Z,99953.22
2018-06-07T21:57:31.804Z,99962.88
2018-06-07T22:00:01.423Z,99950.44
2018-06-07T22:02:30.868Z,99947.45
2018-06-07T22:05:00.373Z,99957.73
2018-06-07T22:07:29.788Z,99957.47
2018-06-07T22:09:59.236Z,99952.08
2018-06-07T22:12:28.708Z,99945.09
2018-06-07T22:14:58.215Z,99945.02
2018-06-07T22:17:28.543Z,99944.50
2018-06-07T22:19:59.883Z,99943.95
2018-06-07T22:22:30.624Z,99943.69
2018-06-07T22:25:00.542Z,99943.38
2018-06-07T22:27:30.073Z,99941.72
2018-06-07T22:29:59.566Z,99939.56
2018-06-07T22:32:29.077Z,99938.73
2018-06-07T22:34:58.494Z,99938.73
2018-06-07T22:37:28.565Z,99928.19
2018-06-07T22:39:58.032Z,99932.50
2018-06-07T22:42:27.555Z,99924.66
2018-06-07T22:44:57.025Z,99931.63
2018-06-07T22:47:33.319Z,99930.54
2018-06-07T22:50:02.963Z,99924.31
2018-06-07T22:52:32.373Z,99922.41
2018-06-07T22:55:01.795Z,99922.09
2018-06-07T22:57:31.538Z,99908.00
2018-06-07T23:00:01.053Z,99913.36
2018-06-07T23:02:30.319Z,99917.37
2018-06-07T23:04:59.867Z,99910.58
2018-06-07T23:07:29.811Z,99903.80
2018-06-07T23:09:59.600Z,99906.78
2018-06-07T23:12:30.028Z,99901.09
2018-06-07T23:14:59.876Z,99893.49
2018-06-07T23:17:29.588Z,99893.73
2018-06-07T23:19:59.759Z,99890.48
2018-06-07T23:22:29.503Z,99890.69
2018-06-07T23:24:58.946Z,99882.84
2018-06-07T23:27:28.818Z,99884.72
2018-06-07T23:29:58.544Z,99885.25
2018-06-07T23:32:28.380Z,99890.87
2018-06-07T23:34:58.094Z,99890.38
2018-06-07T23:37:27.957Z,99889.30
2018-06-07T23:39:57.724Z,99885.83
2018-06-07T23:42:27.852Z,99881.51
2018-06-07T23:44:58.324Z,99879.34
2018-06-07T23:47:28.016Z,99880.95
2018-06-07T23:49:57.904Z,99882.81
2018-06-07T23:52:27.774Z,99879.86
2018-06-07T23:54:57.535Z,99882.03
2018-06-07T23:57:27.694Z,99877.91
2018-06-07T23:59:57.427Z,99877.95
